Time;durP1;ratioP1;P1;durP2;ratioP2;P2;SDS_P1;SDS_P2;PMS_P1;PMS_P2;Temp;Humidity;BMP_temperature;BMP_pressure;BME280_temperature;BME280_humidity;BME280_pressure;Samples;Min_cycle;Max_cycle;Signal;HPM_P1;HPM_P2
2021/04/03 00:01:04;;;;;;;25.95;11.38;;;14.20;80.10;;;;;;4972369;28;20019;-69
2021/04/03 00:03:30;;;;;;;24.08;12.57;;;14.20;80.20;;;;;;4965941;28;20066;-68
2021/04/03 00:05:56;;;;;;;23.05;11.20;;;14.10;80.50;;;;;;4973124;28;20027;-68
2021/04/03 00:08:26;;;;;;;24.90;11.50;;;14.00;80.30;;;;;;4972935;28;20047;-68
2021/04/03 00:11:03;;;;;;;24.88;11.55;;;14.00;80.40;;;;;;4973351;28;20039;-69
2021/04/03 00:13:31;;;;;;;26.23;11.93;;;14.10;79.80;;;;;;4966051;28;20093;-68
2021/04/03 00:15:57;;;;;;;27.65;13.10;;;14.20;79.40;;;;;;4972367;28;20102;-69
2021/04/03 00:18:22;;;;;;;30.05;12.80;;;14.50;79.80;;;;;;4972271;28;20457;-69
2021/04/03 00:20:49;;;;;;;26.08;11.90;;;14.70;78.40;;;;;;4973233;28;20105;-69
2021/04/03 00:23:17;;;;;;;25.02;12.93;;;14.50;78.80;;;;;;4971750;28;20050;-69
2021/04/03 00:25:42;;;;;;;24.50;12.45;;;14.40;78.90;;;;;;4972914;28;20081;-69
2021/04/03 00:28:08;;;;;;;25.08;11.95;;;14.40;79.00;;;;;;4972430;28;20046;-68
2021/04/03 00:30:34;;;;;;;25.88;12.48;;;14.50;78.70;;;;;;4972804;28;20442;-69
2021/04/03 00:33:03;;;;;;;34.58;12.60;;;14.30;79.00;;;;;;4971370;28;20478;-69
2021/04/03 00:35:32;;;;;;;26.38;11.70;;;14.10;79.50;;;;;;4965639;28;20144;-69
2021/04/03 00:37:59;;;;;;;35.67;13.88;;;13.90;80.20;;;;;;4972442;28;20027;-69
2021/04/03 00:40:26;;;;;;;22.27;12.80;;;14.20;79.50;;;;;;4972563;28;20038;-68
2021/04/03 00:42:52;;;;;;;21.08;10.63;;;14.00;79.70;;;;;;4972007;28;20027;-69
2021/04/03 00:45:20;;;;;;;21.35;10.55;;;13.90;80.20;;;;;;4972289;28;20042;-69
2021/04/03 00:47:46;;;;;;;27.23;11.55;;;14.00;79.80;;;;;;4972560;28;20169;-69
2021/04/03 00:50:14;;;;;;;27.35;12.00;;;14.00;79.70;;;;;;4971621;28;20113;-70
2021/04/03 00:52:40;;;;;;;30.92;10.57;;;14.00;79.50;;;;;;4972037;28;20034;-68
2021/04/03 00:55:07;;;;;;;28.30;11.38;;;13.80;79.80;;;;;;4971888;28;20035;-69
2021/04/03 00:57:33;;;;;;;25.00;11.93;;;13.90;79.80;;;;;;4971828;28;20027;-68
2021/04/03 01:00:00;;;;;;;21.48;10.05;;;13.70;80.00;;;;;;4972022;28;20034;-69
2021/04/03 01:02:26;;;;;;;23.20;9.70;;;13.50;80.40;;;;;;4964812;28;20176;-68
2021/04/03 01:04:52;;;;;;;23.83;10.20;;;13.70;80.20;;;;;;4971262;28;20553;-68
2021/04/03 01:07:17;;;;;;;26.00;9.45;;;14.00;79.50;;;;;;4971016;28;20113;-69
2021/04/03 01:09:44;;;;;;;20.77;9.60;;;14.30;78.10;;;;;;4971197;28;20105;-69
2021/04/03 01:12:21;;;;;;;18.73;9.73;;;14.40;77.60;;;;;;4971855;28;20113;-68
2021/04/03 01:15:02;;;;;;;17.17;8.07;;;14.20;77.90;;;;;;4971846;28;20532;-69
2021/04/03 01:17:37;;;;;;;18.38;8.38;;;14.60;75.70;;;;;;4964909;28;20429;-69
2021/04/03 01:20:26;;;;;;;18.92;7.65;;;14.60;74.90;;;;;;4971183;28;20481;-69
2021/04/03 01:23:27;;;;;;;18.33;7.38;;;14.90;73.50;;;;;;4971645;28;20081;-69
2021/04/03 01:26:11;;;;;;;18.15;6.60;;;14.80;72.90;;;;;;4971190;28;20054;-68
2021/04/03 01:28:56;;;;;;;13.70;7.28;;;14.40;74.00;;;;;;4965420;28;20041;-69
2021/04/03 01:31:22;;;;;;;9.73;5.03;;;14.40;73.20;;;;;;4971712;28;20069;-68
2021/04/03 01:33:53;;;;;;;20.80;7.65;;;14.80;71.90;;;;;;4971655;28;20129;-68
2021/04/03 01:36:22;;;;;;;13.10;5.45;;;14.60;75.80;;;;;;4970615;28;20023;-68
2021/04/03 01:39:02;;;;;;;17.45;7.68;;;14.50;72.10;;;;;;4971281;28;20037;-68
2021/04/03 01:41:31;;;;;;;13.07;4.65;;;14.40;75.10;;;;;;4970311;28;20027;-68
2021/04/03 01:43:59;;;;;;;10.50;4.20;;;14.40;71.90;;;;;;4970682;28;20023;-69
2021/04/03 01:46:27;;;;;;;13.32;4.00;;;14.50;70.80;;;;;;4970355;28;20405;-68
2021/04/03 01:48:56;;;;;;;13.32;4.28;;;14.50;70.80;;;;;;4971220;28;20405;-68
2021/04/03 01:51:23;;;;;;;17.00;4.80;;;14.40;70.80;;;;;;4971306;28;20018;-68
2021/04/03 01:53:49;;;;;;;15.63;4.15;;;14.50;70.40;;;;;;4970895;28;20070;-68
2021/04/03 01:56:18;;;;;;;12.25;4.57;;;14.40;70.30;;;;;;4970254;28;20093;-69
2021/04/03 01:58:45;;;;;;;10.00;3.38;;;14.50;70.00;;;;;;4966717;28;20041;-69
2021/04/03 02:01:13;;;;;;;14.00;4.40;;;14.40;69.90;;;;;;4970508;28;20019;-69
2021/04/03 02:03:39;;;;;;;10.93;4.75;;;14.50;69.60;;;;;;4970653;28;20054;-68
2021/04/03 02:06:06;;;;;;;10.95;4.13;;;14.40;69.40;;;;;;4970883;28;20066;-69
2021/04/03 02:08:32;;;;;;;11.88;3.58;;;14.70;68.70;;;;;;4970704;28;20602;-68
2021/04/03 02:11:04;;;;;;;7.70;3.25;;;14.20;69.60;;;;;;4970472;28;20093;-69
2021/04/03 02:13:31;;;;;;;8.82;3.63;;;14.40;69.10;;;;;;4963697;28;20047;-68
2021/04/03 02:16:05;;;;;;;12.00;4.15;;;14.60;68.80;;;;;;4971100;28;20034;-69
2021/04/03 02:18:32;;;;;;;11.98;3.75;;;14.60;68.30;;;;;;4975714;28;20030;-68
2021/04/03 02:21:05;;;;;;;13.27;4.15;;;14.80;68.10;;;;;;4974627;28;20039;-69
2021/04/03 02:23:33;;;;;;;10.85;3.15;;;14.80;67.60;;;;;;4968382;28;20788;-69
2021/04/03 02:25:59;;;;;;;12.52;4.43;;;14.30;68.70;;;;;;4974984;28;20386;-68
2021/04/03 02:28:25;;;;;;;15.10;3.53;;;14.50;68.30;;;;;;4974570;28;20053;-68
2021/04/03 02:30:52;;;;;;;7.70;2.88;;;14.80;67.60;;;;;;4974994;28;20113;-68
2021/04/03 02:33:19;;;;;;;9.18;3.55;;;14.60;67.90;;;;;;4974537;28;20516;-69
2021/04/03 02:35:44;;;;;;;9.70;3.35;;;14.70;67.80;;;;;;4974424;28;20027;-69
2021/04/03 02:38:12;;;;;;;6.97;2.90;;;14.60;67.80;;;;;;4974544;28;20034;-69
2021/04/03 02:40:38;;;;;;;9.93;3.22;;;14.70;67.40;;;;;;4973369;28;20031;-69
2021/04/03 02:43:19;;;;;;;11.40;4.05;;;14.60;67.70;;;;;;4974308;28;20035;-69
2021/04/03 02:46:15;;;;;;;10.50;3.40;;;14.50;67.80;;;;;;4974126;28;20490;-69
2021/04/03 02:48:50;;;;;;;9.73;3.30;;;14.10;68.50;;;;;;4954676;28;20536;-68
2021/04/03 02:51:30;;;;;;;10.52;3.97;;;13.80;69.20;;;;;;4973956;28;20035;-69
2021/04/03 02:53:57;;;;;;;9.25;3.10;;;13.50;69.60;;;;;;4974653;28;20039;-69
2021/04/03 02:56:24;;;;;;;9.77;2.97;;;13.60;69.40;;;;;;4973462;28;20049;-69
2021/04/03 02:58:52;;;;;;;7.78;3.20;;;13.80;69.10;;;;;;4974444;28;20165;-68
2021/04/03 03:01:18;;;;;;;13.02;3.05;;;13.90;68.80;;;;;;4974092;28;20517;-69
2021/04/03 03:03:45;;;;;;;9.50;2.85;;;13.70;68.70;;;;;;4967486;28;20033;-69
2021/04/03 03:06:12;;;;;;;10.18;3.13;;;13.80;68.90;;;;;;4966774;28;20061;-70
2021/04/03 03:08:40;;;;;;;10.63;3.63;;;14.00;68.30;;;;;;4966521;28;20410;-69
2021/04/03 03:11:06;;;;;;;8.52;2.70;;;13.80;68.60;;;;;;4966384;28;20137;-68
2021/04/03 03:13:34;;;;;;;10.23;2.60;;;13.70;68.70;;;;;;4966558;28;20097;-69
2021/04/03 03:16:05;;;;;;;8.05;2.40;;;13.60;68.70;;;;;;4965860;28;20027;-69
2021/04/03 03:18:31;;;;;;;9.73;3.10;;;13.50;68.90;;;;;;4960491;28;20037;-68
2021/04/03 03:20:57;;;;;;;10.63;3.40;;;13.70;69.00;;;;;;4966416;28;20027;-69
2021/04/03 03:23:24;;;;;;;8.23;3.63;;;13.60;68.60;;;;;;4966390;28;20031;-69
2021/04/03 03:25:50;;;;;;;8.80;2.80;;;13.50;69.10;;;;;;4966337;28;20046;-69
2021/04/03 03:28:16;;;;;;;8.82;2.50;;;13.30;69.30;;;;;;4964594;28;20031;-69
2021/04/03 03:30:42;;;;;;;7.40;2.55;;;13.10;69.80;;;;;;4966888;28;20648;-68
2021/04/03 03:33:08;;;;;;;6.18;2.60;;;12.80;70.40;;;;;;4966782;28;20122;-69
2021/04/03 03:35:34;;;;;;;8.70;3.38;;;12.60;70.70;;;;;;4966489;28;20047;-69
2021/04/03 03:38:00;;;;;;;10.88;2.75;;;12.70;70.80;;;;;;4960194;28;20046;-69
2021/04/03 03:40:26;;;;;;;8.77;2.65;;;12.40;71.10;;;;;;4966300;28;20034;-70
2021/04/03 03:42:53;;;;;;;8.63;2.55;;;12.70;70.30;;;;;;4966887;28;20031;-69
2021/04/03 03:45:20;;;;;;;14.82;3.13;;;12.70;70.50;;;;;;4966270;28;20046;-68
2021/04/03 03:47:46;;;;;;;10.25;3.55;;;12.70;70.00;;;;;;4966544;28;20030;-69
2021/04/03 03:50:12;;;;;;;6.28;2.60;;;12.50;70.20;;;;;;4965183;28;20030;-69
2021/04/03 03:52:38;;;;;;;6.75;3.03;;;12.30;70.70;;;;;;4966517;28;20038;-69
2021/04/03 03:55:04;;;;;;;6.95;2.95;;;12.30;70.20;;;;;;4965313;28;20114;-69
2021/04/03 03:57:30;;;;;;;10.05;3.35;;;12.10;70.70;;;;;;4964575;28;20473;-69
2021/04/03 03:59:56;;;;;;;11.02;4.03;;;12.60;70.30;;;;;;4966277;28;20041;-69
2021/04/03 04:02:23;;;;;;;12.95;3.38;;;12.50;70.20;;;;;;4966409;28;20619;-69
2021/04/03 04:04:48;;;;;;;8.23;3.13;;;12.50;69.80;;;;;;4965959;28;20042;-69
2021/04/03 04:07:14;;;;;;;8.38;3.20;;;12.90;69.00;;;;;;4965479;28;20027;-68
2021/04/03 04:09:41;;;;;;;8.43;3.05;;;12.30;70.30;;;;;;4966114;28;20065;-69
2021/04/03 04:12:08;;;;;;;8.88;2.40;;;13.10;68.20;;;;;;4965701;28;20042;-69
2021/04/03 04:14:35;;;;;;;10.38;2.85;;;13.00;68.40;;;;;;4964577;28;20034;-69
2021/04/03 04:17:02;;;;;;;6.38;2.30;;;13.00;68.20;;;;;;4965024;28;20465;-69
2021/04/03 04:19:27;;;;;;;7.70;2.67;;;13.20;67.60;;;;;;4966153;28;20074;-69
2021/04/03 04:21:53;;;;;;;8.35;2.65;;;12.80;68.80;;;;;;4965946;28;20031;-68
2021/04/03 04:24:19;;;;;;;11.60;2.75;;;12.40;69.40;;;;;;4964255;28;20451;-69
2021/04/03 04:26:45;;;;;;;4.82;2.63;;;12.40;69.10;;;;;;4965323;28;20034;-69
2021/04/03 04:29:11;;;;;;;9.73;2.95;;;12.50;69.00;;;;;;4964517;28;20031;-69
2021/04/03 04:31:36;;;;;;;8.10;2.67;;;12.50;68.80;;;;;;4965628;28;20043;-69
2021/04/03 04:34:03;;;;;;;6.53;2.53;;;12.80;67.90;;;;;;4965086;28;20093;-69
2021/04/03 04:36:28;;;;;;;7.57;2.30;;;12.60;68.50;;;;;;4965200;28;20058;-68
2021/04/03 04:38:54;;;;;;;10.40;3.40;;;12.40;68.40;;;;;;4965007;28;20497;-69
2021/04/03 04:41:20;;;;;;;6.25;2.88;;;12.10;68.70;;;;;;4964617;28;20039;-70
2021/04/03 04:43:45;;;;;;;9.93;2.47;;;11.90;69.00;;;;;;4965610;28;20027;-69
2021/04/03 04:46:11;;;;;;;15.73;3.13;;;12.30;68.20;;;;;;4964047;28;20065;-69
2021/04/03 04:48:37;;;;;;;11.10;2.70;;;12.60;67.30;;;;;;4965304;28;20486;-68
2021/04/03 04:51:03;;;;;;;7.72;2.47;;;12.70;67.10;;;;;;4964802;28;20037;-70
2021/04/03 04:53:29;;;;;;;9.82;2.78;;;12.70;66.50;;;;;;4964672;28;20034;-68
2021/04/03 04:55:55;;;;;;;9.43;3.25;;;12.80;66.50;;;;;;4964870;28;20042;-70
2021/04/03 04:58:20;;;;;;;11.02;3.42;;;12.60;66.80;;;;;;4964983;28;20126;-69
2021/04/03 05:00:46;;;;;;;7.07;2.83;;;12.00;68.10;;;;;;4964802;28;20030;-69
2021/04/03 05:03:12;;;;;;;12.52;2.83;;;11.80;68.30;;;;;;4964726;28;20109;-69
2021/04/03 05:05:37;;;;;;;8.30;3.25;;;12.00;68.40;;;;;;4964965;28;20039;-68
2021/04/03 05:08:03;;;;;;;43.35;20.88;;;12.40;66.80;;;;;;4964080;28;20110;-69
2021/04/03 05:10:29;;;;;;;9.18;2.92;;;12.40;67.60;;;;;;4964953;28;20039;-68
2021/04/03 05:13:05;;;;;;;13.05;2.60;;;12.60;66.40;;;;;;4964583;28;20106;-68
2021/04/03 05:15:31;;;;;;;5.57;2.80;;;13.00;65.10;;;;;;4957753;28;20038;-69
2021/04/03 05:17:57;;;;;;;10.43;3.10;;;12.40;66.50;;;;;;4963284;28;20506;-68
2021/04/03 05:20:23;;;;;;;11.40;3.50;;;12.70;65.70;;;;;;4963833;28;20031;-69
2021/04/03 05:22:49;;;;;;;5.40;2.75;;;13.10;64.40;;;;;;4962917;28;20034;-68
2021/04/03 05:25:15;;;;;;;5.38;2.67;;;13.80;62.80;;;;;;4964319;28;20046;-69
2021/04/03 05:27:41;;;;;;;12.02;3.40;;;13.40;64.20;;;;;;4964250;28;20030;-69
2021/04/03 05:30:08;;;;;;;8.35;2.95;;;13.70;62.50;;;;;;4964358;28;20050;-69
2021/04/03 05:32:34;;;;;;;7.35;2.95;;;13.70;63.10;;;;;;4964548;28;20026;-68
2021/04/03 05:35:00;;;;;;;10.20;3.45;;;13.40;63.60;;;;;;4964418;28;20042;-69
2021/04/03 05:37:26;;;;;;;13.85;3.20;;;13.20;64.30;;;;;;4963783;28;20027;-69
2021/04/03 05:39:52;;;;;;;15.25;4.28;;;13.10;63.90;;;;;;4964396;28;20418;-69
2021/04/03 05:42:19;;;;;;;10.40;3.17;;;13.60;63.30;;;;;;4963599;28;20022;-69
2021/04/03 05:44:45;;;;;;;12.40;2.97;;;13.60;63.10;;;;;;4964727;28;20051;-69
2021/04/03 05:47:12;;;;;;;9.93;3.13;;;13.50;63.20;;;;;;4963989;28;22210;-68
2021/04/03 05:49:40;;;;;;;10.88;3.53;;;13.70;62.60;;;;;;4964584;28;20118;-69
2021/04/03 05:52:06;;;;;;;6.90;2.70;;;13.60;62.80;;;;;;4963140;28;20050;-69
2021/04/03 05:54:39;;;;;;;9.68;3.63;;;13.60;62.70;;;;;;4963750;28;20046;-69
2021/04/03 05:57:06;;;;;;;13.45;3.33;;;13.70;62.40;;;;;;4963623;28;20035;-69
2021/04/03 05:59:35;;;;;;;12.60;3.63;;;13.70;62.40;;;;;;4963257;28;20038;-69
2021/04/03 06:02:03;;;;;;;11.30;3.22;;;13.40;63.80;;;;;;4963919;28;20482;-68
2021/04/03 06:04:29;;;;;;;7.15;3.15;;;13.20;64.20;;;;;;4964025;28;20031;-68
2021/04/03 06:06:55;;;;;;;6.05;2.80;;;13.40;62.90;;;;;;4956738;28;20647;-70
2021/04/03 06:09:21;;;;;;;8.95;2.35;;;13.50;63.20;;;;;;4962728;28;20054;-68
2021/04/03 06:11:48;;;;;;;9.45;2.95;;;13.30;63.40;;;;;;4963064;28;20685;-68
2021/04/03 06:14:14;;;;;;;10.80;3.15;;;13.40;62.90;;;;;;4963419;28;20081;-69
2021/04/03 06:16:42;;;;;;;8.20;3.35;;;13.50;62.10;;;;;;4963051;28;20453;-69
2021/04/03 06:19:08;;;;;;;9.18;3.10;;;13.60;61.30;;;;;;4963097;28;20193;-69
2021/04/03 06:21:34;;;;;;;11.73;3.13;;;13.70;61.00;;;;;;4963393;28;20114;-69
2021/04/03 06:24:00;;;;;;;12.98;3.65;;;13.70;62.70;;;;;;4963733;28;20026;-69
2021/04/03 06:26:26;;;;;;;7.53;2.55;;;13.60;63.10;;;;;;4956046;28;20520;-69
2021/04/03 06:28:52;;;;;;;8.88;2.97;;;13.80;60.40;;;;;;4963438;28;20102;-69
2021/04/03 06:31:18;;;;;;;11.73;2.55;;;13.90;59.80;;;;;;4962450;28;20596;-69
2021/04/03 06:33:44;;;;;;;10.10;2.60;;;14.00;60.00;;;;;;4963311;28;20055;-68
2021/04/03 06:36:12;;;;;;;13.68;2.65;;;14.00;59.60;;;;;;4963035;28;20029;-69
2021/04/03 06:38:39;;;;;;;8.10;2.65;;;13.90;61.80;;;;;;4963734;28;20117;-68
2021/04/03 06:41:25;;;;;;;9.60;2.35;;;14.00;59.30;;;;;;4963051;28;20038;-68
2021/04/03 06:44:01;;;;;;;9.10;2.20;;;14.10;59.30;;;;;;4964000;28;20038;-69
2021/04/03 06:46:27;;;;;;;6.72;2.95;;;14.10;59.40;;;;;;4962849;28;20070;-69
2021/04/03 06:48:55;;;;;;;6.43;2.42;;;14.10;58.80;;;;;;4963681;28;20505;-68
2021/04/03 06:51:22;;;;;;;6.95;2.58;;;14.10;59.20;;;;;;4963378;28;20030;-68
2021/04/03 06:53:49;;;;;;;12.48;2.97;;;14.20;58.70;;;;;;4963201;28;20086;-69
2021/04/03 06:56:20;;;;;;;8.50;2.38;;;14.40;60.40;;;;;;4963089;28;20023;-69
2021/04/03 06:58:47;;;;;;;7.07;2.60;;;14.50;60.50;;;;;;4958802;28;20154;-69
2021/04/03 07:01:16;;;;;;;9.88;2.20;;;15.10;58.60;;;;;;4962483;28;20043;-69
2021/04/03 07:03:48;;;;;;;9.60;2.83;;;16.40;56.70;;;;;;4963735;28;20054;-69
2021/04/03 07:06:15;;;;;;;6.68;1.98;;;16.00;56.00;;;;;;4965906;28;20073;-70
2021/04/03 07:08:42;;;;;;;10.45;3.60;;;15.30;54.70;;;;;;4966270;28;20067;-69
2021/04/03 07:11:08;;;;;;;8.93;2.28;;;14.80;55.10;;;;;;4966493;28;20085;-69
2021/04/03 07:13:36;;;;;;;12.10;2.75;;;14.70;54.20;;;;;;4967088;28;20038;-69
2021/04/03 07:16:04;;;;;;;5.97;2.13;;;14.70;54.80;;;;;;4966496;28;20114;-69
2021/04/03 07:18:32;;;;;;;6.53;2.03;;;14.70;55.40;;;;;;4966904;28;20110;-69
2021/04/03 07:20:58;;;;;;;5.20;1.92;;;14.80;55.80;;;;;;4966117;28;20089;-70
2021/04/03 07:23:24;;;;;;;5.97;2.15;;;14.80;54.90;;;;;;4966463;28;20031;-69
2021/04/03 07:25:51;;;;;;;5.50;2.10;;;14.90;54.00;;;;;;4967034;28;20584;-69
2021/04/03 07:28:20;;;;;;;10.00;2.10;;;15.00;53.50;;;;;;4966676;28;20241;-68
2021/04/03 07:30:47;;;;;;;12.05;2.58;;;15.00;52.50;;;;;;4965185;28;20027;-68
2021/04/03 07:33:13;;;;;;;6.20;2.08;;;15.10;53.40;;;;;;4981375;28;20042;-70
2021/04/03 07:35:48;;;;;;;7.40;2.45;;;15.10;54.90;;;;;;4966042;28;20042;-70
2021/04/03 07:38:19;;;;;;;3.78;1.75;;;15.20;55.20;;;;;;4964586;28;20071;-69
2021/04/03 07:40:50;;;;;;;6.68;2.50;;;15.30;55.30;;;;;;4966395;28;20654;-70
2021/04/03 07:43:39;;;;;;;13.95;2.53;;;15.30;52.40;;;;;;4966488;28;20031;-69
2021/04/03 07:46:20;;;;;;;9.60;1.92;;;15.30;52.30;;;;;;4965613;28;20421;-69
2021/04/03 07:49:00;;;;;;;6.40;2.38;;;15.30;51.60;;;;;;4963561;28;20050;-70
2021/04/03 07:51:25;;;;;;;12.70;2.28;;;15.50;51.80;;;;;;4960117;28;20066;-70
2021/04/03 07:53:57;;;;;;;6.63;1.50;;;15.50;52.50;;;;;;4966142;28;20073;-70
2021/04/03 07:56:45;;;;;;;15.65;3.13;;;15.60;52.80;;;;;;4968978;28;20023;-71
2021/04/03 07:59:11;;;;;;;6.03;1.63;;;15.70;53.20;;;;;;4969318;28;20023;-70
2021/04/03 08:01:37;;;;;;;6.05;1.83;;;15.60;51.60;;;;;;4966922;28;20165;-70
2021/04/03 08:04:04;;;;;;;5.72;1.85;;;15.70;51.80;;;;;;4975772;28;20054;-69
2021/04/03 08:06:41;;;;;;;6.07;1.90;;;15.70;49.90;;;;;;4969137;28;20077;-70
2021/04/03 08:09:16;;;;;;;5.50;1.70;;;15.70;51.40;;;;;;4966646;28;20085;-70
2021/04/03 08:11:42;;;;;;;7.97;1.95;;;15.70;51.80;;;;;;4966540;28;20035;-70
2021/04/03 08:14:11;;;;;;;5.47;1.60;;;15.70;52.30;;;;;;4966286;28;20066;-72
2021/04/03 08:16:38;;;;;;;8.10;2.33;;;15.70;52.20;;;;;;4969296;28;20094;-70
2021/04/03 08:19:04;;;;;;;23.17;3.42;;;15.70;51.20;;;;;;4965607;28;20054;-71
2021/04/03 08:21:41;;;;;;;6.35;2.33;;;15.80;51.90;;;;;;4966203;28;20050;-69
2021/04/03 08:24:07;;;;;;;4.78;1.70;;;15.90;53.10;;;;;;4963893;28;20631;-69
2021/04/03 08:26:39;;;;;;;5.72;1.92;;;15.90;51.70;;;;;;4964894;28;20109;-69
2021/04/03 08:29:06;;;;;;;4.55;2.13;;;15.90;49.70;;;;;;4964996;28;20027;-70
2021/04/03 08:31:33;;;;;;;4.68;1.67;;;15.80;48.40;;;;;;4964946;28;20035;-70
2021/04/03 08:34:04;;;;;;;5.50;1.38;;;15.90;50.20;;;;;;4965777;28;20422;-69
2021/04/03 08:36:35;;;;;;;12.23;2.08;;;16.10;48.10;;;;;;4961188;28;20461;-69
2021/04/03 08:39:04;;;;;;;4.10;1.70;;;16.20;48.30;;;;;;4961644;28;20153;-69
2021/04/03 08:41:30;;;;;;;4.82;2.58;;;16.40;48.80;;;;;;4965018;28;20113;-69
2021/04/03 08:43:57;;;;;;;8.30;1.98;;;16.60;48.30;;;;;;4964821;28;20126;-69
2021/04/03 08:46:24;;;;;;;9.57;1.77;;;16.90;47.90;;;;;;4964387;28;20093;-69
2021/04/03 08:48:59;;;;;;;13.27;2.67;;;16.90;47.10;;;;;;4964922;28;20038;-70
2021/04/03 08:51:26;;;;;;;8.50;1.48;;;16.80;47.60;;;;;;4957873;28;20035;-70
2021/04/03 08:54:00;;;;;;;6.45;2.08;;;16.90;45.70;;;;;;4964844;28;20118;-69
2021/04/03 08:56:35;;;;;;;7.43;2.17;;;16.80;46.70;;;;;;4963023;28;20493;-70
2021/04/03 08:59:06;;;;;;;26.00;3.00;;;16.90;46.40;;;;;;4964331;28;20665;-70
2021/04/03 09:01:35;;;;;;;6.40;1.70;;;16.90;46.00;;;;;;4964080;28;20027;-69
2021/04/03 09:04:07;;;;;;;4.00;1.50;;;16.80;44.70;;;;;;4964041;28;20366;-69
2021/04/03 09:06:54;;;;;;;4.57;1.67;;;16.90;45.60;;;;;;4964982;28;20054;-70
2021/04/03 09:09:25;;;;;;;3.47;1.30;;;17.90;44.00;;;;;;4961941;28;20375;-69
2021/04/03 09:12:07;;;;;;;5.97;1.70;;;18.10;43.40;;;;;;4964322;28;20031;-69
2021/04/03 09:14:53;;;;;;;3.95;1.55;;;18.30;44.30;;;;;;4961246;28;20422;-69
2021/04/03 09:17:24;;;;;;;5.15;1.58;;;18.70;43.70;;;;;;4965000;28;20481;-70
2021/04/03 09:19:51;;;;;;;10.80;1.98;;;18.20;43.20;;;;;;4967999;28;20030;-69
2021/04/03 09:22:20;;;;;;;6.13;1.65;;;18.40;42.50;;;;;;4964973;28;20461;-69
2021/04/03 09:24:57;;;;;;;9.02;1.98;;;19.40;42.40;;;;;;4966011;28;20038;-69
2021/04/03 09:27:25;;;;;;;9.93;2.33;;;18.50;43.40;;;;;;4963116;28;20065;-70
2021/04/03 09:30:05;;;;;;;6.28;1.60;;;19.50;42.00;;;;;;4964521;28;20025;-69
2021/04/03 09:32:47;;;;;;;5.00;1.15;;;19.70;41.40;;;;;;4958412;28;20031;-69
2021/04/03 09:35:29;;;;;;;11.02;2.33;;;20.10;42.30;;;;;;4963025;28;20031;-70
2021/04/03 09:38:00;;;;;;;6.05;1.38;;;20.80;40.80;;;;;;4964991;28;20588;-70
2021/04/03 09:40:37;;;;;;;15.43;1.63;;;20.80;40.90;;;;;;4957501;28;20031;-69
2021/04/03 09:43:04;;;;;;;2.38;0.90;;;21.30;40.00;;;;;;4964405;28;20045;-71
2021/04/03 09:45:30;;;;;;;27.48;2.53;;;21.30;39.80;;;;;;4964263;28;20081;-69
2021/04/03 09:47:58;;;;;;;3.95;1.50;;;21.10;40.30;;;;;;4960207;28;20441;-70
2021/04/03 09:50:25;;;;;;;8.20;1.50;;;19.80;39.90;;;;;;4964577;28;20023;-69
2021/04/03 09:52:51;;;;;;;6.32;1.55;;;19.40;41.80;;;;;;4963150;28;20098;-69
2021/04/03 09:55:17;;;;;;;7.38;1.55;;;18.40;39.80;;;;;;4965847;28;20318;-69
2021/04/03 09:57:42;;;;;;;6.10;1.55;;;18.30;40.80;;;;;;4965787;28;20109;-69
2021/04/03 10:00:09;;;;;;;7.82;1.58;;;18.20;40.10;;;;;;4965357;28;20057;-69
2021/04/03 10:02:35;;;;;;;5.00;1.55;;;18.20;39.80;;;;;;4961894;28;20031;-69
2021/04/03 10:05:02;;;;;;;5.60;1.27;;;18.20;40.10;;;;;;4965955;28;20023;-69
2021/04/03 10:07:27;;;;;;;7.38;2.10;;;18.00;39.80;;;;;;4958731;28;20668;-70
2021/04/03 10:09:53;;;;;;;7.68;1.30;;;18.20;39.60;;;;;;4965063;28;20059;-70
2021/04/03 10:12:19;;;;;;;6.32;1.50;;;18.20;40.80;;;;;;4971220;28;20432;-69
2021/04/03 10:14:45;;;;;;;3.28;1.20;;;18.10;39.60;;;;;;4965458;28;20502;-69
2021/04/03 10:17:11;;;;;;;4.15;1.27;;;18.20;39.20;;;;;;4965447;28;20022;-69
2021/04/03 10:19:36;;;;;;;1.95;0.98;;;18.10;38.70;;;;;;4981484;28;20031;-70
2021/04/03 10:22:02;;;;;;;2.92;1.10;;;18.30;38.80;;;;;;4966957;28;20061;-70
2021/04/03 10:24:28;;;;;;;25.20;1.60;;;18.40;38.80;;;;;;4964776;28;20034;-69
2021/04/03 10:26:54;;;;;;;4.30;1.50;;;18.20;39.50;;;;;;4964490;28;20039;-69
2021/04/03 10:29:20;;;;;;;2.50;1.08;;;18.00;38.80;;;;;;4964428;28;20088;-69
2021/04/03 10:31:46;;;;;;;4.55;1.27;;;18.10;39.50;;;;;;4959964;28;20548;-69
2021/04/03 10:34:11;;;;;;;4.05;1.48;;;18.10;39.30;;;;;;4963987;28;20386;-69
2021/04/03 10:36:37;;;;;;;3.58;1.23;;;18.10;38.80;;;;;;4964326;28;20030;-70
2021/04/03 10:39:03;;;;;;;6.32;1.80;;;17.90;36.90;;;;;;4967458;28;20035;-69
2021/04/03 10:41:29;;;;;;;6.07;1.30;;;18.60;40.30;;;;;;4966427;28;20815;-69
2021/04/03 10:43:54;;;;;;;14.02;1.77;;;18.80;39.70;;;;;;4967324;28;20564;-69
2021/04/03 10:46:20;;;;;;;4.57;1.23;;;18.70;39.10;;;;;;4967617;28;20512;-69
2021/04/03 10:48:46;;;;;;;2.63;1.10;;;18.90;39.00;;;;;;4967517;28;20034;-69
2021/04/03 10:51:12;;;;;;;4.65;1.40;;;18.90;37.80;;;;;;4967679;28;20074;-71
2021/04/03 10:53:37;;;;;;;2.28;1.05;;;19.00;38.10;;;;;;4967044;28;20043;-68
2021/04/03 10:56:03;;;;;;;8.85;1.63;;;19.10;37.20;;;;;;4967637;28;20034;-69
2021/04/03 10:58:29;;;;;;;3.72;1.10;;;19.00;37.20;;;;;;4968167;28;20058;-69
2021/04/03 11:00:55;;;;;;;2.85;1.05;;;19.20;37.90;;;;;;4966402;28;20676;-69
2021/04/03 11:03:21;;;;;;;8.75;1.40;;;19.30;38.70;;;;;;4967059;28;20042;-70
2021/04/03 11:05:47;;;;;;;4.85;1.55;;;19.30;37.80;;;;;;4967643;28;20375;-70
2021/04/03 11:08:12;;;;;;;5.18;1.30;;;19.30;38.10;;;;;;4967278;28;20031;-69
2021/04/03 11:10:38;;;;;;;7.65;1.40;;;18.90;37.40;;;;;;4966067;28;20424;-70
2021/04/03 11:13:04;;;;;;;3.58;1.17;;;18.90;38.00;;;;;;4966555;28;20589;-69
2021/04/03 11:15:31;;;;;;;6.55;1.30;;;19.00;38.60;;;;;;4965055;28;20054;-69
2021/04/03 11:17:57;;;;;;;2.53;1.02;;;19.40;38.90;;;;;;4966402;28;20048;-69
2021/04/03 11:20:22;;;;;;;4.78;1.20;;;19.60;39.10;;;;;;4966352;28;20030;-68
2021/04/03 11:22:48;;;;;;;11.13;1.35;;;19.50;38.20;;;;;;4967643;28;20026;-69
2021/04/03 11:25:15;;;;;;;2.40;0.82;;;19.80;37.90;;;;;;4966213;28;20034;-70
2021/04/03 11:27:41;;;;;;;4.78;1.42;;;19.60;37.80;;;;;;4966687;28;20034;-69
2021/04/03 11:30:14;;;;;;;5.47;1.15;;;19.40;37.20;;;;;;4965938;28;20039;-69
2021/04/03 11:32:48;;;;;;;2.23;1.17;;;19.40;38.70;;;;;;4965869;28;20058;-69
2021/04/03 11:35:15;;;;;;;3.70;1.10;;;19.40;37.90;;;;;;4965767;28;20470;-69
2021/04/03 11:37:41;;;;;;;179.02;12.70;;;19.40;37.80;;;;;;4967272;28;20098;-70
2021/04/03 11:40:09;;;;;;;5.38;1.10;;;19.50;37.20;;;;;;4966715;28;20085;-70
2021/04/03 11:42:35;;;;;;;15.60;2.20;;;19.60;37.20;;;;;;4966216;28;20039;-69
2021/04/03 11:45:01;;;;;;;3.90;1.60;;;19.40;36.80;;;;;;4965904;28;20109;-69
2021/04/03 11:47:27;;;;;;;6.72;1.80;;;19.60;36.50;;;;;;4966262;28;20031;-70
2021/04/03 11:49:57;;;;;;;3.10;1.42;;;19.20;35.70;;;;;;4964055;28;20725;-69
2021/04/03 11:52:25;;;;;;;3.90;1.35;;;19.30;36.50;;;;;;4965368;28;20085;-70
2021/04/03 11:54:51;;;;;;;7.00;1.55;;;19.80;37.80;;;;;;4965970;28;20105;-69
2021/04/03 11:57:17;;;;;;;4.78;1.30;;;19.40;36.90;;;;;;4965674;28;20037;-69
2021/04/03 11:59:44;;;;;;;4.28;1.48;;;19.10;37.10;;;;;;4964697;28;20035;-69
2021/04/03 12:02:09;;;;;;;5.00;1.25;;;18.90;36.50;;;;;;4965782;28;20030;-69
2021/04/03 12:04:35;;;;;;;3.30;1.35;;;18.90;36.90;;;;;;4966043;28;20505;-71
2021/04/03 12:07:01;;;;;;;6.95;1.30;;;19.20;38.20;;;;;;4965451;28;20050;-69
2021/04/03 12:09:27;;;;;;;13.95;1.95;;;19.70;38.50;;;;;;4965720;28;20102;-69
2021/04/03 12:11:53;;;;;;;8.77;1.13;;;19.90;37.70;;;;;;4966024;28;20054;-69
2021/04/03 12:14:19;;;;;;;3.88;1.17;;;19.80;36.90;;;;;;4966036;28;20043;-69
2021/04/03 12:16:44;;;;;;;2.88;1.08;;;19.60;37.40;;;;;;4965900;28;20371;-69
2021/04/03 12:19:10;;;;;;;2.97;1.13;;;20.00;38.30;;;;;;4965461;28;20073;-69
2021/04/03 12:21:36;;;;;;;8.00;1.40;;;19.70;37.10;;;;;;4965882;28;20597;-70
2021/04/03 12:24:01;;;;;;;2.03;0.95;;;20.00;37.60;;;;;;4965190;28;20034;-71
2021/04/03 12:26:27;;;;;;;3.17;1.17;;;19.50;36.60;;;;;;4964718;28;20038;-70
2021/04/03 12:28:53;;;;;;;7.38;1.50;;;19.90;37.50;;;;;;4965802;28;20108;-70
2021/04/03 12:31:18;;;;;;;3.50;1.35;;;19.80;37.20;;;;;;4965488;28;20644;-70
2021/04/03 12:33:44;;;;;;;4.35;1.10;;;19.70;36.90;;;;;;4965641;28;20062;-69
2021/04/03 12:36:10;;;;;;;9.38;2.30;;;19.80;36.90;;;;;;4964543;28;20089;-70
2021/04/03 12:38:36;;;;;;;9.60;2.90;;;20.00;36.50;;;;;;4964651;28;20030;-70
2021/04/03 12:41:02;;;;;;;9.00;1.15;;;20.20;36.80;;;;;;4961629;28;20058;-69
2021/04/03 12:43:29;;;;;;;17.33;2.03;;;20.10;37.00;;;;;;4964797;28;20030;-69
2021/04/03 12:45:55;;;;;;;7.55;1.20;;;20.10;36.80;;;;;;4965555;28;20050;-68
2021/04/03 12:48:21;;;;;;;2.58;1.10;;;20.40;37.30;;;;;;4965222;28;20031;-69